createdAt,value
2019-02-07T00:01:09.916Z,61.37
2019-02-07T00:03:39.608Z,66.28
2019-02-07T00:06:09.252Z,67.90
2019-02-07T00:08:38.400Z,64.27
2019-02-07T00:11:07.388Z,72.67
2019-02-07T00:13:35.983Z,67.00
2019-02-07T00:16:05.909Z,69.03
2019-02-07T00:18:34.385Z,67.33
2019-02-07T00:21:02.979Z,61.90
2019-02-07T00:23:32.907Z,63.50
2019-02-07T00:26:02.538Z,59.70
2019-02-07T00:28:31.241Z,70.67
2019-02-07T00:30:59.802Z,57.30
2019-02-07T00:33:28.452Z,51.03
2019-02-07T00:35:58.489Z,60.58
2019-02-07T00:38:27.234Z,66.77
2019-02-07T00:40:55.743Z,63.67
2019-02-07T00:43:24.461Z,63.97
2019-02-07T00:45:52.919Z,54.83
2019-02-07T00:48:22.974Z,58.27
2019-02-07T00:50:51.819Z,53.20
2019-02-07T00:53:20.585Z,57.83
2019-02-07T00:55:50.729Z,57.80
2019-02-07T00:58:20.722Z,55.30
2019-02-07T01:00:49.535Z,57.37
2019-02-07T01:03:18.067Z,58.63
2019-02-07T01:05:46.717Z,58.20
2019-02-07T01:08:16.919Z,58.20
2019-02-07T01:10:45.658Z,54.80
2019-02-07T01:13:17.393Z,55.23
2019-02-07T01:15:46.037Z,65.10
2019-02-07T01:18:14.638Z,59.70
2019-02-07T01:20:43.432Z,63.47
2019-02-07T01:23:14.756Z,60.67
2019-02-07T01:25:43.399Z,61.30
2019-02-07T01:28:13.046Z,60.58
2019-02-07T01:30:42.648Z,72.40
2019-02-07T01:33:11.216Z,62.07
2019-02-07T01:35:39.744Z,64.67
2019-02-07T01:38:08.363Z,64.42
2019-02-07T01:40:36.998Z,66.83
2019-02-07T01:43:05.845Z,56.00
2019-02-07T01:45:34.314Z,55.30
2019-02-07T01:48:03.018Z,57.77
2019-02-07T01:50:32.076Z,61.03
2019-02-07T01:53:01.609Z,55.53
2019-02-07T01:55:34.212Z,62.03
2019-02-07T01:58:02.746Z,64.17
2019-02-07T02:00:31.327Z,55.50
2019-02-07T02:03:04.318Z,61.73
2019-02-07T02:05:33.012Z,58.50
2019-02-07T02:08:01.550Z,53.23
2019-02-07T02:10:30.467Z,57.08
2019-02-07T02:12:59.087Z,61.27
2019-02-07T02:15:27.697Z,50.10
2019-02-07T02:17:56.442Z,45.57
2019-02-07T02:20:26.712Z,52.63
2019-02-07T02:22:56.033Z,47.33
2019-02-07T02:25:45.392Z,45.97
2019-02-07T02:28:14.562Z,48.77
2019-02-07T02:30:44.694Z,46.03
2019-02-07T02:33:16.335Z,49.23
2019-02-07T02:35:45.187Z,36.63
2019-02-07T02:38:16.412Z,38.27
2019-02-07T02:40:44.980Z,38.13
2019-02-07T02:43:16.552Z,41.67
2019-02-07T02:45:49.485Z,44.03
2019-02-07T02:48:19.485Z,40.97
2019-02-07T02:50:51.002Z,42.17
2019-02-07T02:53:19.656Z,41.93
2019-02-07T02:55:48.764Z,32.77
2019-02-07T02:58:17.305Z,29.93
2019-02-07T03:00:47.487Z,32.50
2019-02-07T03:03:23.588Z,28.70
2019-02-07T03:05:59.651Z,30.77
2019-02-07T03:08:46.118Z,33.60
2019-02-07T03:11:25.352Z,29.00
2019-02-07T03:14:11.905Z,29.80
2019-02-07T03:17:00.439Z,24.20
2019-02-07T03:19:46.406Z,29.90
2019-02-07T03:22:25.614Z,29.87
2019-02-07T03:24:55.808Z,29.10
2019-02-07T03:27:35.269Z,31.33
2019-02-07T03:30:19.307Z,29.30
2019-02-07T03:32:59.827Z,28.17
2019-02-07T03:35:30.074Z,24.83
2019-02-07T03:38:00.265Z,25.10
2019-02-07T03:40:46.743Z,28.00
2019-02-07T03:43:32.021Z,25.00
2019-02-07T03:46:11.232Z,30.00
2019-02-07T03:48:58.941Z,24.13
2019-02-07T03:51:31.771Z,27.43
2019-02-07T03:54:20.815Z,22.60
2019-02-07T03:56:52.511Z,24.17
2019-02-07T03:59:28.273Z,26.40
2019-02-07T04:02:07.467Z,26.83
2019-02-07T04:04:50.340Z,24.85
2019-02-07T04:07:37.139Z,26.45
2019-02-07T04:10:11.875Z,22.90
2019-02-07T04:12:47.785Z,23.35
2019-02-07T04:15:19.403Z,28.20
2019-02-07T04:17:58.171Z,19.80
2019-02-07T04:20:33.865Z,24.83
2019-02-07T04:23:21.054Z,22.53
2019-02-07T04:26:09.093Z,23.13
2019-02-07T04:28:42.138Z,22.13
2019-02-07T04:31:14.912Z,19.70
2019-02-07T04:33:54.330Z,21.25
2019-02-07T04:36:39.793Z,18.50
2019-02-07T04:39:25.761Z,18.33
2019-02-07T04:45:07.463Z,19.07
2019-02-07T04:47:49.860Z,18.33
2019-02-07T04:50:26.217Z,18.57
2019-02-07T04:52:59.146Z,18.13
2019-02-07T04:55:38.640Z,18.80
2019-02-07T04:58:24.837Z,18.40
2019-02-07T05:01:01.381Z,19.90
2019-02-07T05:03:46.781Z,20.87
2019-02-07T05:06:30.194Z,18.42
2019-02-07T05:09:00.324Z,17.23
2019-02-07T05:11:36.213Z,16.80
2019-02-07T05:14:15.613Z,15.17
2019-02-07T05:17:02.277Z,17.75
2019-02-07T05:19:35.592Z,18.50
2019-02-07T05:22:22.568Z,17.20
2019-02-07T05:27:54.232Z,15.33
2019-02-07T05:30:24.484Z,14.13
2019-02-07T05:32:55.623Z,16.03
2019-02-07T05:35:27.040Z,13.67
2019-02-07T05:38:06.948Z,12.70
2019-02-07T05:43:25.936Z,13.10
2019-02-07T05:46:14.168Z,12.20
2019-02-07T05:48:44.263Z,13.43
2019-02-07T05:51:18.676Z,13.97
2019-02-07T05:53:51.103Z,13.23
2019-02-07T05:56:39.925Z,14.40
2019-02-07T05:59:15.902Z,14.10
2019-02-07T06:01:48.951Z,11.30
2019-02-07T06:04:36.016Z,10.83
2019-02-07T06:07:21.307Z,12.80
2019-02-07T06:09:56.752Z,14.63
2019-02-07T06:12:46.593Z,11.13
2019-02-07T06:15:23.295Z,15.05
2019-02-07T06:18:02.290Z,13.63
2019-02-07T06:20:32.499Z,13.57
2019-02-07T06:23:05.695Z,9.75
2019-02-07T06:25:51.292Z,14.07
2019-02-07T06:28:27.056Z,15.93
2019-02-07T06:30:58.510Z,13.97
2019-02-07T06:33:28.886Z,14.93
2019-02-07T06:36:01.723Z,14.23
2019-02-07T06:38:47.924Z,14.43
2019-02-07T06:41:30.976Z,12.90
2019-02-07T06:44:12.109Z,12.60
2019-02-07T06:46:42.293Z,14.18
2019-02-07T06:49:15.204Z,9.40
2019-02-07T06:52:02.283Z,10.13
2019-02-07T06:54:41.464Z,9.47
2019-02-07T06:57:20.994Z,7.30
2019-02-07T06:59:51.097Z,9.00
2019-02-07T07:02:27.319Z,7.23
2019-02-07T07:05:00.382Z,7.33
2019-02-07T07:07:39.970Z,7.03
2019-02-07T07:10:14.705Z,7.53
2019-02-07T07:12:53.780Z,8.00
2019-02-07T07:18:15.375Z,7.70
2019-02-07T07:21:03.227Z,7.30
2019-02-07T07:23:51.801Z,7.27
2019-02-07T07:26:30.729Z,5.50
2019-02-07T07:29:00.903Z,4.90
2019-02-07T07:31:40.155Z,7.10
2019-02-07T07:34:11.071Z,4.83
2019-02-07T07:36:49.783Z,4.10
2019-02-07T07:39:20.056Z,4.67
2019-02-07T07:41:53.066Z,8.53
2019-02-07T07:44:24.710Z,5.00
2019-02-07T07:47:08.319Z,7.03
2019-02-07T07:49:53.511Z,12.80
2019-02-07T07:52:23.803Z,16.75
2019-02-07T07:54:53.950Z,15.73
2019-02-07T07:57:24.147Z,21.20
2019-02-07T07:59:54.696Z,20.40
2019-02-07T08:02:28.005Z,16.90
2019-02-07T08:05:07.041Z,14.53
2019-02-07T08:07:46.285Z,19.87
2019-02-07T08:10:26.765Z,26.67
2019-02-07T08:13:15.351Z,23.60
2019-02-07T08:16:05.775Z,24.23
2019-02-07T08:21:32.628Z,19.90
2019-02-07T08:24:18.296Z,24.40
2019-02-07T08:26:59.996Z,21.63
2019-02-07T08:29:46.893Z,24.53
2019-02-07T08:32:17.879Z,28.07
2019-02-07T08:34:50.839Z,22.60
2019-02-07T08:37:27.062Z,21.23
2019-02-07T08:40:15.004Z,31.47
2019-02-07T08:43:01.429Z,24.70
2019-02-07T08:45:47.393Z,23.50
2019-02-07T08:48:23.638Z,23.47
2019-02-07T08:51:08.757Z,31.27
2019-02-07T08:53:53.970Z,21.60
2019-02-07T08:56:37.925Z,24.20
2019-02-07T08:59:26.130Z,27.03
2019-02-07T09:01:59.285Z,24.87
2019-02-07T09:04:32.798Z,26.23
2019-02-07T09:07:03.936Z,24.80
2019-02-07T09:09:50.365Z,31.10
2019-02-07T09:12:23.515Z,32.30
2019-02-07T09:15:03.419Z,34.47
2019-02-07T09:17:37.650Z,27.47
2019-02-07T09:20:14.722Z,37.45
2019-02-07T09:22:48.902Z,35.55
2019-02-07T09:25:36.242Z,28.50
2019-02-07T09:28:06.860Z,27.37
2019-02-07T09:30:53.485Z,34.35
2019-02-07T09:33:28.066Z,27.20
2019-02-07T09:36:05.580Z,30.93
2019-02-07T09:38:43.155Z,31.37
2019-02-07T09:44:14.369Z,32.43
2019-02-07T09:46:47.296Z,31.00
2019-02-07T09:49:25.028Z,31.90
2019-02-07T09:51:55.185Z,38.67
2019-02-07T09:54:25.330Z,35.70
2019-02-07T09:56:58.736Z,28.75
2019-02-07T09:59:29.206Z,29.03
2019-02-07T10:02:05.276Z,27.83
2019-02-07T10:04:51.612Z,32.53
2019-02-07T10:07:34.268Z,23.97
2019-02-07T10:10:08.518Z,27.63
2019-02-07T10:12:38.689Z,29.97
2019-02-07T10:15:10.331Z,31.67
2019-02-07T10:17:43.322Z,30.23
2019-02-07T10:20:32.313Z,30.50
2019-02-07T10:23:25.097Z,28.60
2019-02-07T10:26:13.011Z,32.93
2019-02-07T10:28:45.783Z,32.57
2019-02-07T10:31:32.164Z,26.68
2019-02-07T10:34:02.778Z,34.83
2019-02-07T10:36:35.851Z,27.60
2019-02-07T10:39:10.310Z,29.87
2019-02-07T10:41:56.687Z,29.00
2019-02-07T10:44:43.619Z,35.30
2019-02-07T10:47:13.867Z,33.33
2019-02-07T10:49:44.097Z,31.27
2019-02-07T10:52:14.281Z,32.50
2019-02-07T10:54:46.968Z,25.73
2019-02-07T10:57:22.686Z,24.20
2019-02-07T10:59:58.592Z,27.05
2019-02-07T11:02:32.726Z,28.30
2019-02-07T11:08:00.419Z,26.53
2019-02-07T11:10:47.240Z,22.07
2019-02-07T11:13:23.211Z,25.50
2019-02-07T11:16:11.385Z,17.82
2019-02-07T11:18:55.221Z,26.40
2019-02-07T11:21:36.201Z,26.20
2019-02-07T11:24:10.480Z,25.83
2019-02-07T11:26:44.559Z,20.20
2019-02-07T11:29:30.135Z,26.20
2019-02-07T11:32:00.364Z,22.73
2019-02-07T11:34:46.996Z,24.27
2019-02-07T11:37:23.072Z,22.85
2019-02-07T11:40:05.464Z,27.63
2019-02-07T11:42:51.866Z,22.90
2019-02-07T11:45:33.350Z,22.22
2019-02-07T11:48:15.136Z,24.03
2019-02-07T11:50:48.325Z,23.27
2019-02-07T11:53:21.899Z,16.03
2019-02-07T11:55:52.212Z,19.27
2019-02-07T11:58:22.416Z,15.37
2019-02-07T12:00:55.508Z,15.23
2019-02-07T12:03:28.560Z,17.50
2019-02-07T12:06:00.389Z,19.45
2019-02-07T12:08:37.913Z,20.67
2019-02-07T12:11:08.094Z,15.97
2019-02-07T12:13:56.845Z,19.98
2019-02-07T12:16:29.478Z,16.97
2019-02-07T12:19:17.466Z,14.83
2019-02-07T12:21:54.262Z,16.83
2019-02-07T12:24:33.178Z,14.33
2019-02-07T12:27:18.478Z,15.15
2019-02-07T12:30:06.212Z,20.70
2019-02-07T12:32:40.227Z,17.93
2019-02-07T12:35:18.146Z,17.60
2019-02-07T12:38:05.489Z,20.30
2019-02-07T12:40:41.771Z,19.50
2019-02-07T12:43:12.205Z,15.73
2019-02-07T12:45:53.732Z,22.48
2019-02-07T12:48:23.840Z,19.57
2019-02-07T12:51:08.796Z,16.30
2019-02-07T12:53:53.028Z,16.37
2019-02-07T12:56:39.396Z,15.40
2019-02-07T13:02:09.720Z,20.37
2019-02-07T13:04:55.892Z,15.07
2019-02-07T13:10:26.009Z,17.40
2019-02-07T13:12:56.172Z,17.20
2019-02-07T13:15:29.107Z,15.37
2019-02-07T13:18:04.087Z,19.20
2019-02-07T13:20:39.809Z,15.43
2019-02-07T13:23:17.729Z,10.03
2019-02-07T13:25:56.784Z,14.70
2019-02-07T13:28:46.355Z,20.97
2019-02-07T13:31:44.320Z,17.03
2019-02-07T13:34:17.632Z,14.47
2019-02-07T13:36:50.901Z,12.53
2019-02-07T13:39:33.690Z,13.98
2019-02-07T13:42:03.876Z,10.77
2019-02-07T13:44:39.775Z,12.33
2019-02-07T13:47:15.713Z,20.52
2019-02-07T13:50:04.211Z,16.50
2019-02-07T13:52:50.842Z,6.63
2019-02-07T13:55:39.296Z,12.17
2019-02-07T13:58:26.704Z,13.60
2019-02-07T14:01:12.969Z,11.53
2019-02-07T14:03:49.144Z,11.97
2019-02-07T14:06:21.841Z,12.83
2019-02-07T14:08:52.139Z,16.40
2019-02-07T14:11:47.732Z,11.73
2019-02-07T14:14:24.179Z,11.83
2019-02-07T14:16:57.045Z,14.80
2019-02-07T14:19:43.659Z,9.90
2019-02-07T14:22:25.742Z,12.50
2019-02-07T14:25:04.731Z,13.23
2019-02-07T14:27:34.897Z,8.60
2019-02-07T14:30:12.429Z,10.13
2019-02-07T14:32:42.627Z,11.33
2019-02-07T14:35:19.031Z,12.17
2019-02-07T14:37:57.919Z,9.38
2019-02-07T14:40:29.493Z,12.67
2019-02-07T14:43:02.958Z,10.18
2019-02-07T14:45:42.311Z,12.13
2019-02-07T14:48:12.527Z,11.80
2019-02-07T14:50:41.019Z,7.67
2019-02-07T14:53:10.685Z,14.60
2019-02-07T14:55:45.469Z,9.63
2019-02-07T14:58:16.492Z,12.78
2019-02-07T15:00:45.109Z,15.17
2019-02-07T15:03:13.878Z,12.23
2019-02-07T15:05:43.038Z,7.30
2019-02-07T15:08:11.584Z,12.53
2019-02-07T15:10:40.327Z,12.85
2019-02-07T15:13:10.309Z,7.53
2019-02-07T15:15:40.582Z,10.60
2019-02-07T15:18:09.180Z,11.77
2019-02-07T15:20:38.077Z,10.23
2019-02-07T15:23:13.436Z,9.63
2019-02-07T15:25:41.889Z,9.97
2019-02-07T15:28:10.386Z,9.03
2019-02-07T15:30:38.855Z,13.00
2019-02-07T15:33:07.398Z,14.87
2019-02-07T15:35:45.375Z,12.78
2019-02-07T15:38:14.898Z,7.95
2019-02-07T15:40:43.546Z,9.95
2019-02-07T15:43:25.679Z,11.03
2019-02-07T15:45:44.946Z,10.07
2019-02-07T15:48:14.493Z,10.90
2019-02-07T15:50:43.140Z,7.17
2019-02-07T15:53:13.176Z,9.00
2019-02-07T15:55:41.721Z,8.40
2019-02-07T15:58:13.522Z,11.53
2019-02-07T16:00:43.764Z,8.77
2019-02-07T16:03:26.596Z,12.43
2019-02-07T16:05:55.056Z,9.65
2019-02-07T16:08:23.589Z,11.43
2019-02-07T16:10:52.239Z,11.30
2019-02-07T16:13:20.777Z,13.83
2019-02-07T16:15:49.584Z,13.70
2019-02-07T16:18:21.424Z,9.15
2019-02-07T16:20:49.936Z,14.37
2019-02-07T16:23:21.279Z,13.43
2019-02-07T16:25:50.565Z,10.83
2019-02-07T16:28:20.374Z,14.60
2019-02-07T16:31:00.330Z,12.17
2019-02-07T16:33:31.660Z,8.67
2019-02-07T16:36:01.620Z,10.77
2019-02-07T16:38:30.478Z,13.30
2019-02-07T16:41:00.402Z,7.07
2019-02-07T16:43:34.719Z,11.73
2019-02-07T16:46:03.353Z,9.97
2019-02-07T16:48:32.195Z,11.17
2019-02-07T16:51:04.620Z,9.07
2019-02-07T16:53:33.195Z,15.30
2019-02-07T16:56:02.373Z,9.20
2019-02-07T16:58:30.909Z,13.53
2019-02-07T17:01:03.985Z,17.50
2019-02-07T17:03:32.555Z,13.07
2019-02-07T17:06:01.149Z,9.50
2019-02-07T17:08:29.648Z,9.93
2019-02-07T17:11:00.707Z,11.20
2019-02-07T17:13:33.205Z,13.35
2019-02-07T17:16:02.007Z,12.03
2019-02-07T17:18:31.670Z,11.13
2019-02-07T17:21:11.562Z,9.30
2019-02-07T17:23:35.859Z,10.17
2019-02-07T17:26:04.750Z,15.53
2019-02-07T17:28:34.487Z,12.00
2019-02-07T17:31:06.179Z,14.90
2019-02-07T17:33:35.141Z,9.97
2019-02-07T17:36:03.773Z,13.97
2019-02-07T17:38:32.709Z,10.80
2019-02-07T17:41:01.196Z,10.43
2019-02-07T17:43:29.824Z,12.97
2019-02-07T17:45:59.421Z,9.43
2019-02-07T17:48:28.064Z,11.87
2019-02-07T17:50:58.429Z,12.57
2019-02-07T17:53:27.333Z,9.60
2019-02-07T17:55:55.905Z,13.73
2019-02-07T17:58:24.439Z,14.00
2019-02-07T18:00:58.897Z,15.53
2019-02-07T18:03:30.627Z,12.87
2019-02-07T18:05:59.188Z,14.40
2019-02-07T18:08:28.267Z,10.37
2019-02-07T18:10:58.249Z,13.32
2019-02-07T18:13:28.335Z,12.30
2019-02-07T18:16:20.733Z,14.93
2019-02-07T18:18:53.747Z,13.07
2019-02-07T18:21:22.220Z,13.57
2019-02-07T18:23:50.723Z,13.10
2019-02-07T18:26:23.305Z,18.83
2019-02-07T18:28:54.454Z,11.80
2019-02-07T18:31:23.059Z,12.47
2019-02-07T18:33:53.293Z,17.40
2019-02-07T18:36:21.830Z,11.93
2019-02-07T18:38:50.437Z,15.53
2019-02-07T18:41:21.692Z,12.47
2019-02-07T18:43:50.675Z,12.43
2019-02-07T18:46:19.431Z,11.53
2019-02-07T18:48:49.191Z,13.17
2019-02-07T18:51:20.253Z,12.43
2019-02-07T18:53:50.407Z,10.23
2019-02-07T18:56:19.003Z,16.00
2019-02-07T18:58:49.644Z,8.83
2019-02-07T19:01:18.188Z,15.35
2019-02-07T19:03:50.149Z,10.70
2019-02-07T19:06:20.131Z,12.20
2019-02-07T19:08:52.702Z,10.25
2019-02-07T19:11:21.180Z,13.35
2019-02-07T19:13:49.650Z,13.05
2019-02-07T19:16:18.286Z,14.10
2019-02-07T19:18:46.992Z,12.87
2019-02-07T19:21:15.523Z,12.80
2019-02-07T19:23:45.360Z,13.23
2019-02-07T19:26:14.135Z,14.17
2019-02-07T19:28:44.201Z,10.67
2019-02-07T19:31:14.236Z,11.03
2019-02-07T19:33:44.604Z,17.67
2019-02-07T19:36:13.132Z,10.77
2019-02-07T19:38:43.274Z,17.12
2019-02-07T19:41:11.894Z,17.63
2019-02-07T19:43:41.558Z,13.58
2019-02-07T19:46:10.044Z,8.47
2019-02-07T19:48:41.682Z,11.47
2019-02-07T19:51:10.232Z,12.60
2019-02-07T19:53:41.532Z,13.70
2019-02-07T19:56:11.944Z,14.70
2019-02-07T19:58:40.406Z,14.43
2019-02-07T20:01:09.282Z,15.03
2019-02-07T20:03:38.455Z,13.15
2019-02-07T20:06:07.387Z,11.57
2019-02-07T20:08:37.603Z,14.27
2019-02-07T20:11:06.244Z,16.82
2019-02-07T20:13:35.548Z,12.85
2019-02-07T20:16:04.890Z,11.43
2019-02-07T20:18:35.965Z,12.00
2019-02-07T20:21:04.782Z,13.55
2019-02-07T20:23:33.471Z,12.33
2019-02-07T20:26:02.108Z,13.10
2019-02-07T20:28:30.696Z,11.90
2019-02-07T20:30:59.257Z,15.18
2019-02-07T20:33:27.918Z,15.45
2019-02-07T20:35:56.473Z,11.68
2019-02-07T20:38:26.608Z,12.78
2019-02-07T20:40:56.295Z,14.33
2019-02-07T20:43:24.945Z,12.57
2019-02-07T20:45:53.464Z,15.03
2019-02-07T20:48:25.175Z,13.80
2019-02-07T20:50:53.743Z,16.87
2019-02-07T20:53:22.329Z,17.70
2019-02-07T20:55:50.876Z,12.70
2019-02-07T20:58:19.465Z,15.50
2019-02-07T21:00:48.068Z,13.57
2019-02-07T21:03:17.909Z,14.87
2019-02-07T21:05:46.479Z,18.60
2019-02-07T21:08:16.337Z,18.97
2019-02-07T21:10:44.877Z,19.40
2019-02-07T21:13:16.819Z,11.60
2019-02-07T21:15:46.833Z,11.10
2019-02-07T21:18:15.377Z,16.63
2019-02-07T21:20:44.963Z,14.83
2019-02-07T21:23:13.497Z,10.27
2019-02-07T21:25:45.101Z,13.83
2019-02-07T21:28:13.752Z,11.47
2019-02-07T21:30:45.001Z,14.70
2019-02-07T21:33:13.551Z,14.18
2019-02-07T21:35:43.704Z,10.95
2019-02-07T21:38:12.249Z,9.87
2019-02-07T21:40:40.773Z,12.30
2019-02-07T21:43:13.985Z,22.82
2019-02-07T21:45:42.612Z,17.47
2019-02-07T21:48:11.409Z,16.10
2019-02-07T21:50:41.525Z,14.23
2019-02-07T21:53:10.168Z,14.33
2019-02-07T21:55:39.038Z,16.03
2019-02-07T21:58:12.158Z,12.70
2019-02-07T22:00:45.606Z,13.07
2019-02-07T22:03:14.772Z,16.35
2019-02-07T22:05:43.622Z,12.57
2019-02-07T22:08:12.618Z,8.50
2019-02-07T22:10:41.152Z,8.80
2019-02-07T22:13:11.709Z,16.47
2019-02-07T22:15:41.732Z,13.43
2019-02-07T22:18:10.521Z,10.50
2019-02-07T22:20:38.989Z,16.70
2019-02-07T22:23:07.608Z,12.93
2019-02-07T22:25:38.156Z,13.88
2019-02-07T22:28:10.054Z,12.40
2019-02-07T22:30:38.912Z,14.40
2019-02-07T22:33:11.447Z,11.93
2019-02-07T22:35:40.136Z,13.23
2019-02-07T22:38:09.023Z,10.33
2019-02-07T22:40:37.648Z,17.97
2019-02-07T22:43:08.044Z,13.53
2019-02-07T22:45:36.620Z,11.77
2019-02-07T22:48:06.316Z,10.97
2019-02-07T22:50:35.439Z,11.43
2019-02-07T22:53:04.882Z,13.40
2019-02-07T22:55:33.442Z,8.53
2019-02-07T22:58:02.218Z,10.50
2019-02-07T23:00:38.574Z,12.10
2019-02-07T23:03:13.107Z,9.40
2019-02-07T23:05:41.680Z,8.60
2019-02-07T23:08:11.128Z,8.30
2019-02-07T23:10:39.910Z,8.37
2019-02-07T23:13:11.947Z,11.73
2019-02-07T23:15:40.810Z,11.53
2019-02-07T23:18:10.441Z,9.87
2019-02-07T23:20:39.014Z,7.13
2019-02-07T23:23:09.612Z,10.67
2019-02-07T23:25:39.262Z,10.17
2019-02-07T23:28:08.769Z,12.93
2019-02-07T23:33:26.147Z,13.20
2019-02-07T23:35:54.685Z,13.87
2019-02-07T23:38:23.420Z,14.80
2019-02-07T23:40:56.911Z,12.97
2019-02-07T23:43:30.099Z,8.60
2019-02-07T23:46:01.458Z,8.67
2019-02-07T23:48:30.030Z,8.83
2019-02-07T23:50:58.649Z,5.57
2019-02-07T23:53:28.508Z,6.27
2019-02-07T23:55:57.079Z,7.97
2019-02-07T23:58:27.143Z,10.35
